Time;durP1;ratioP1;P1;durP2;ratioP2;P2;SDS_P1;SDS_P2;PMS_P1;PMS_P2;Temp;Humidity;BMP_temperature;BMP_pressure;BME280_temperature;BME280_humidity;BME280_pressure;Samples;Min_cycle;Max_cycle;Signal;HPM_P1;HPM_P2
2023/11/01 06:57:50;;;;;;;1.85;1.73;;;;;;;;;;6232298;22;20023;-88
2023/11/01 07:00:16;;;;;;;2.10;1.90;;;;;;;;;;6250861;22;20011;-88
2023/11/01 07:02:41;;;;;;;1.83;1.73;;;;;;;;;;6251684;22;20437;-86
2023/11/01 07:05:07;;;;;;;1.83;1.73;;;;;;;;;;6279083;22;20000;-88
2023/11/01 07:07:32;;;;;;;1.70;1.60;;;;;;;;;;6251879;22;20010;-88
2023/11/01 07:09:59;;;;;;;3.22;2.60;;;;;;;;;;6278973;22;20000;-87
2023/11/01 07:12:24;;;;;;;2.63;2.28;;;;;;;;;;6251931;22;19999;-87
2023/11/01 07:14:50;;;;;;;2.35;2.03;;;;;;;;;;6251984;22;20008;-87
2023/11/01 07:17:15;;;;;;;2.92;2.15;;;;;;;;;;6251528;22;20085;-88
2023/11/01 07:19:41;;;;;;;4.57;2.53;;;;;;;;;;6279048;22;20404;-88
2023/11/01 07:22:07;;;;;;;3.45;2.47;;;;;;;;;;6278887;22;20004;-88
2023/11/01 07:24:32;;;;;;;4.18;2.58;;;;;;;;;;6278756;22;20008;-88
2023/11/01 07:26:58;;;;;;;2.92;2.53;;;;;;;;;;6251588;22;20008;-87
2023/11/01 07:29:23;;;;;;;3.05;2.72;;;;;;;;;;6278756;22;20331;-87
2023/11/01 07:31:49;;;;;;;2.60;2.40;;;;;;;;;;6251475;22;20367;-87
2023/11/01 07:34:14;;;;;;;2.40;2.10;;;;;;;;;;6251374;22;20004;-86
2023/11/01 07:36:40;;;;;;;2.58;2.30;;;;;;;;;;6278740;22;20323;-86
2023/11/01 07:39:06;;;;;;;2.45;2.22;;;;;;;;;;6278729;22;20000;-87
2023/11/01 07:41:32;;;;;;;2.80;2.47;;;;;;;;;;6279163;22;20000;-87
2023/11/01 07:43:57;;;;;;;2.45;2.05;;;;;;;;;;6278705;22;20010;-86
2023/11/01 07:46:23;;;;;;;3.33;2.28;;;;;;;;;;6251744;22;20015;-86
2023/11/01 07:48:48;;;;;;;2.67;2.30;;;;;;;;;;6279187;22;20031;-89
2023/11/01 07:51:13;;;;;;;2.78;2.47;;;;;;;;;;6279023;22;20004;-88
2023/11/01 07:53:39;;;;;;;2.50;2.20;;;;;;;;;;6251697;22;20008;-88
2023/11/01 07:56:05;;;;;;;2.58;2.38;;;;;;;;;;6278308;22;20031;-87
2023/11/01 07:58:31;;;;;;;2.75;2.53;;;;;;;;;;6278556;22;20004;-91
2023/11/01 08:00:58;;;;;;;2.80;2.50;;;;;;;;;;6252251;22;20011;-88
2023/11/01 10:31:33;;;;;;;2.25;2.00;;;;;;;;;;6239089;22;20435;-90
2023/11/01 10:33:58;;;;;;;2.08;1.83;;;;;;;;;;6249667;22;20011;-88
2023/11/01 10:36:24;;;;;;;1.90;1.80;;;;;;;;;;6251986;22;20022;-88
2023/11/01 10:38:51;;;;;;;2.28;1.77;;;;;;;;;;6287497;22;19998;-86
2023/11/01 10:41:18;;;;;;;2.63;2.10;;;;;;;;;;6297848;22;20054;-85
2023/11/01 10:43:44;;;;;;;2.15;2.00;;;;;;;;;;6302881;22;20012;-88
2023/11/01 10:46:10;;;;;;;1.80;1.70;;;;;;;;;;6269769;22;20014;-87
2023/11/01 10:48:36;;;;;;;2.30;2.10;;;;;;;;;;6254048;22;20008;-89
2023/11/01 10:51:07;;;;;;;1.80;1.70;;;;;;;;;;6253920;22;20401;-89
2023/11/01 10:53:34;;;;;;;2.20;2.05;;;;;;;;;;6252398;22;20501;-87
2023/11/01 10:56:03;;;;;;;1.95;1.63;;;;;;;;;;6250241;22;20053;-86
2023/11/01 10:58:31;;;;;;;2.00;1.80;;;;;;;;;;6249819;22;20007;-86
2023/11/01 11:01:10;;;;;;;1.83;1.73;;;;;;;;;;6250220;22;20003;-89
2023/11/01 11:03:54;;;;;;;2.08;1.88;;;;;;;;;;6250201;22;20402;-88
2023/11/01 11:06:27;;;;;;;1.92;1.75;;;;;;;;;;6249638;22;20011;-87
2023/11/01 11:09:23;;;;;;;2.97;2.10;;;;;;;;;;6277019;22;20003;-88
2023/11/01 11:12:14;;;;;;;2.05;1.95;;;;;;;;;;6277332;22;20052;-88
2023/11/01 11:14:48;;;;;;;2.80;2.40;;;;;;;;;;6249742;22;20014;-88
2023/11/01 11:17:17;;;;;;;2.40;2.10;;;;;;;;;;6224880;22;20016;-89
2023/11/01 11:20:14;;;;;;;2.33;1.92;;;;;;;;;;6276928;22;20492;-85
2023/11/01 11:23:00;;;;;;;6.07;4.10;;;;;;;;;;6277459;22;20026;-85
2023/11/01 11:25:38;;;;;;;4.18;3.75;;;;;;;;;;6251595;22;20299;-86
2023/11/01 11:28:20;;;;;;;5.68;4.00;;;;;;;;;;6278178;22;20007;-86
2023/11/01 11:31:03;;;;;;;5.57;3.97;;;;;;;;;;6250608;22;20399;-88
2023/11/01 11:33:44;;;;;;;4.10;3.20;;;;;;;;;;6251810;22;20015;-88
2023/11/01 11:36:25;;;;;;;3.63;2.58;;;;;;;;;;6252014;22;20331;-88
2023/11/01 11:38:58;;;;;;;3.17;2.65;;;;;;;;;;6252121;22;20004;-89
2023/11/01 11:41:43;;;;;;;4.18;2.80;;;;;;;;;;6252466;22;20004;-87
2023/11/01 11:44:22;;;;;;;3.67;2.42;;;;;;;;;;6278736;22;20007;-88
2023/11/01 11:46:54;;;;;;;3.45;2.50;;;;;;;;;;6251864;22;20010;-88
2023/11/01 11:49:30;;;;;;;3.38;1.83;;;;;;;;;;6251671;22;20008;-87
2023/11/01 11:51:58;;;;;;;2.15;1.80;;;;;;;;;;6278856;22;20031;-87
2023/11/01 11:54:26;;;;;;;2.60;2.00;;;;;;;;;;6251739;22;20023;-89
2023/11/01 11:56:54;;;;;;;3.92;2.03;;;;;;;;;;6279534;22;20030;-89
2023/11/01 11:59:21;;;;;;;2.40;1.98;;;;;;;;;;6226989;22;20015;-85
2023/11/01 12:01:54;;;;;;;2.13;1.92;;;;;;;;;;6278765;22;20082;-87
2023/11/01 12:04:20;;;;;;;2.95;2.10;;;;;;;;;;6279375;22;20327;-85
2023/11/01 12:06:50;;;;;;;2.70;1.90;;;;;;;;;;6279371;22;20010;-86
2023/11/01 12:09:23;;;;;;;1.90;1.80;;;;;;;;;;6252143;22;20035;-86
2023/11/01 12:11:55;;;;;;;2.08;1.90;;;;;;;;;;6278677;22;19996;-86
2023/11/01 12:14:25;;;;;;;2.03;1.85;;;;;;;;;;6278726;22;20339;-85
2023/11/01 12:16:54;;;;;;;2.13;1.92;;;;;;;;;;6278564;22;20007;-84
2023/11/01 12:19:21;;;;;;;2.40;2.20;;;;;;;;;;6278388;22;20049;-85
2023/11/01 12:21:49;;;;;;;2.30;2.10;;;;;;;;;;6278322;22;20003;-85
2023/11/01 12:24:16;;;;;;;2.10;2.00;;;;;;;;;;6278736;22;20004;-85
2023/11/01 12:27:00;;;;;;;2.00;1.77;;;;;;;;;;6278334;22;20000;-91
2023/11/01 12:29:32;;;;;;;2.10;1.90;;;;;;;;;;6251309;22;20038;-88
2023/11/01 12:32:17;;;;;;;1.80;1.70;;;;;;;;;;6250946;22;20004;-88
2023/11/01 12:34:46;;;;;;;2.85;2.20;;;;;;;;;;6249864;22;20023;-88
2023/11/01 12:37:18;;;;;;;2.45;2.00;;;;;;;;;;6249613;22;20435;-88
2023/11/01 12:40:09;;;;;;;2.05;1.95;;;;;;;;;;6276716;22;20081;-88
2023/11/01 12:42:37;;;;;;;3.33;2.00;;;;;;;;;;6249327;22;20082;-88
2023/11/01 12:45:03;;;;;;;3.25;2.00;;;;;;;;;;6249674;22;20011;-88
2023/11/01 12:47:38;;;;;;;2.20;1.80;;;;;;;;;;6276809;22;20000;-88
2023/11/01 12:50:05;;;;;;;1.92;1.83;;;;;;;;;;6277242;22;20049;-89
2023/11/01 12:52:31;;;;;;;2.55;2.00;;;;;;;;;;6276942;22;20300;-88
2023/11/01 12:54:56;;;;;;;2.40;2.20;;;;;;;;;;6249683;22;20199;-89
2023/11/01 12:57:21;;;;;;;2.17;1.98;;;;;;;;;;6276527;22;20004;-89
2023/11/01 12:59:47;;;;;;;2.60;2.00;;;;;;;;;;6276879;22;20009;-89
2023/11/01 13:02:12;;;;;;;2.90;1.80;;;;;;;;;;6249754;22;19999;-89
2023/11/01 13:04:38;;;;;;;2.40;1.90;;;;;;;;;;6249794;22;20330;-89
2023/11/01 13:07:04;;;;;;;3.05;1.92;;;;;;;;;;6276914;22;20407;-89
2023/11/01 13:09:30;;;;;;;1.75;1.52;;;;;;;;;;6276807;22;20000;-89
2023/11/01 13:11:55;;;;;;;1.90;1.80;;;;;;;;;;6276819;22;20018;-89
2023/11/01 13:14:21;;;;;;;1.95;1.80;;;;;;;;;;6276884;22;20007;-88
2023/11/01 13:16:47;;;;;;;1.98;1.70;;;;;;;;;;6277092;22;20061;-87
2023/11/01 13:19:13;;;;;;;3.55;2.22;;;;;;;;;;6276984;22;19999;-87
2023/11/01 13:21:39;;;;;;;2.78;1.85;;;;;;;;;;6276813;22;20000;-87
2023/11/01 13:24:05;;;;;;;2.22;2.10;;;;;;;;;;6276596;22;20007;-88
2023/11/01 13:26:32;;;;;;;2.80;2.60;;;;;;;;;;6250118;22;20351;-89
2023/11/01 13:28:58;;;;;;;2.65;2.10;;;;;;;;;;6277546;22;20004;-88
2023/11/01 13:31:23;;;;;;;3.58;3.00;;;;;;;;;;6277475;22;20007;-89
2023/11/01 13:33:49;;;;;;;3.25;2.85;;;;;;;;;;6199886;22;1182599;-86
2023/11/01 13:36:14;;;;;;;3.28;2.42;;;;;;;;;;6277896;22;20019;-87
2023/11/01 13:38:40;;;;;;;2.60;2.20;;;;;;;;;;6277616;22;20066;-86
2023/11/01 13:41:12;;;;;;;3.60;2.60;;;;;;;;;;6278533;22;20004;-90
2023/11/01 13:43:37;;;;;;;3.28;2.17;;;;;;;;;;6251077;22;20012;-86
2023/11/01 13:46:04;;;;;;;3.67;2.45;;;;;;;;;;6278306;22;20334;-86
2023/11/01 13:48:30;;;;;;;2.40;2.13;;;;;;;;;;6278695;22;20074;-89
2023/11/01 13:50:58;;;;;;;2.47;2.15;;;;;;;;;;6278072;22;20415;-87
2023/11/01 13:53:24;;;;;;;2.63;2.08;;;;;;;;;;6250802;22;20011;-87
2023/11/01 13:55:52;;;;;;;2.58;2.38;;;;;;;;;;6277652;22;20000;-88
2023/11/01 13:58:18;;;;;;;2.45;2.25;;;;;;;;;;6250806;22;20004;-87
2023/11/01 14:00:44;;;;;;;2.10;1.90;;;;;;;;;;6277548;22;20000;-89
2023/11/01 14:03:10;;;;;;;3.00;2.30;;;;;;;;;;6250954;22;20030;-88
2023/11/01 14:05:37;;;;;;;2.38;2.08;;;;;;;;;;6277857;22;20027;-89
2023/11/01 17:23:20;;;;;;;5.68;3.90;;;;;;;;;;6181098;23;20031;-87
2023/11/01 17:25:49;;;;;;;3.63;3.20;;;;;;;;;;6164880;23;20076;-86
2023/11/01 17:28:21;;;;;;;4.35;3.50;;;;;;;;;;6189943;23;20083;-87
2023/11/01 17:30:53;;;;;;;2.75;2.47;;;;;;;;;;6190398;23;20004;-88
2023/11/01 17:33:40;;;;;;;6.03;2.90;;;;;;;;;;6215074;23;20008;-87
2023/11/01 17:36:18;;;;;;;3.78;2.88;;;;;;;;;;6215274;23;20008;-87
2023/11/01 17:38:44;;;;;;;4.43;3.25;;;;;;;;;;6191958;23;20013;-87
2023/11/01 17:41:47;;;;;;;3.75;2.97;;;;;;;;;;6189979;23;20460;-87
2023/11/01 17:44:12;;;;;;;4.05;2.97;;;;;;;;;;6217219;23;20008;-87
2023/11/01 17:46:38;;;;;;;5.90;5.00;;;;;;;;;;6218047;23;19997;-86
2023/11/01 17:49:05;;;;;;;5.05;3.58;;;;;;;;;;6218389;23;20375;-87
2023/11/01 17:51:31;;;;;;;5.70;5.18;;;;;;;;;;6192374;23;20035;-85
2023/11/01 17:53:57;;;;;;;9.38;7.55;;;;;;;;;;6233269;23;19985;-86
2023/11/01 17:56:23;;;;;;;4.38;3.97;;;;;;;;;;6238644;23;20031;-85
2023/11/01 17:58:54;;;;;;;5.38;3.17;;;;;;;;;;6242440;23;20008;-86
2023/11/01 18:01:21;;;;;;;4.63;3.60;;;;;;;;;;6217306;23;19996;-86
2023/11/01 18:03:46;;;;;;;24.67;13.20;;;;;;;;;;6197395;23;20083;-87
2023/11/01 18:06:19;;;;;;;23.90;12.85;;;;;;;;;;6219418;23;20005;-87
2023/11/01 18:08:45;;;;;;;25.90;14.55;;;;;;;;;;6219028;23;20001;-87
2023/11/01 18:11:11;;;;;;;17.38;10.68;;;;;;;;;;6217580;23;20008;-87
2023/11/01 18:13:37;;;;;;;12.48;9.55;;;;;;;;;;6189966;23;20092;-87
2023/11/01 18:16:09;;;;;;;26.13;17.58;;;;;;;;;;6189966;23;20001;-87
2023/11/01 18:18:48;;;;;;;12.43;9.68;;;;;;;;;;6216710;23;20047;-87
2023/11/01 18:21:20;;;;;;;48.58;36.13;;;;;;;;;;6214943;23;20091;-86
2023/11/01 18:24:06;;;;;;;6.22;5.63;;;;;;;;;;6216369;23;20013;-86
2023/11/01 18:26:33;;;;;;;3.47;2.92;;;;;;;;;;6216449;23;20068;-86
2023/11/01 18:29:01;;;;;;;2.70;2.40;;;;;;;;;;6216344;23;20001;-86
2023/11/01 18:31:36;;;;;;;88.53;42.72;;;;;;;;;;6216541;23;20031;-86
2023/11/01 18:34:08;;;;;;;6.85;4.85;;;;;;;;;;6216472;23;19996;-87
2023/11/01 18:36:38;;;;;;;4.00;3.53;;;;;;;;;;6216442;23;20008;-86
2023/11/01 18:39:04;;;;;;;3.72;3.25;;;;;;;;;;6216410;23;20012;-87
2023/11/01 18:41:34;;;;;;;3.72;3.40;;;;;;;;;;6217316;23;20061;-88
2023/11/01 18:44:02;;;;;;;5.22;3.17;;;;;;;;;;6218658;23;20062;-89
2023/11/01 18:46:32;;;;;;;3.97;2.80;;;;;;;;;;6218867;23;20005;-90
2023/11/01 18:48:58;;;;;;;6.57;3.35;;;;;;;;;;6218822;23;20004;-87
2023/11/01 18:51:48;;;;;;;3.47;2.65;;;;;;;;;;6218639;23;20127;-90
2023/11/01 18:54:14;;;;;;;4.70;3.10;;;;;;;;;;6217993;23;20017;-91
2023/11/01 18:56:40;;;;;;;2.97;2.72;;;;;;;;;;6218330;23;20339;-88
2023/11/01 18:59:08;;;;;;;5.07;2.80;;;;;;;;;;6192347;23;20009;-88
2023/11/01 19:01:41;;;;;;;4.03;2.85;;;;;;;;;;6191524;23;20368;-87
2023/11/01 19:04:07;;;;;;;5.20;3.38;;;;;;;;;;6191612;23;20013;-87
2023/11/01 19:06:33;;;;;;;3.08;2.75;;;;;;;;;;6218508;23;20001;-88
2023/11/01 19:08:59;;;;;;;6.13;3.40;;;;;;;;;;6191893;23;20000;-87
2023/11/01 19:11:25;;;;;;;3.45;2.45;;;;;;;;;;6218379;23;20005;-88
2023/11/01 19:13:59;;;;;;;2.90;2.70;;;;;;;;;;6191454;23;20427;-87
2023/11/01 19:16:33;;;;;;;4.47;3.05;;;;;;;;;;6218190;23;20073;-87
2023/11/01 19:18:58;;;;;;;3.85;2.92;;;;;;;;;;6218217;23;20055;-88
2023/11/01 19:21:24;;;;;;;2.70;2.40;;;;;;;;;;6216521;23;20009;-91
2023/11/01 19:23:50;;;;;;;3.35;2.50;;;;;;;;;;6226059;23;20020;-88
2023/11/01 19:26:19;;;;;;;2.53;2.33;;;;;;;;;;6191977;23;20020;-90
2023/11/01 19:28:44;;;;;;;2.67;2.25;;;;;;;;;;6218283;23;20001;-90
2023/11/01 19:31:10;;;;;;;2.92;2.42;;;;;;;;;;6242040;23;20035;-91
2023/11/01 19:33:35;;;;;;;2.47;2.28;;;;;;;;;;6216577;23;20035;-90
2023/11/01 19:36:01;;;;;;;3.17;2.88;;;;;;;;;;6218207;23;20008;-89
2023/11/01 19:38:27;;;;;;;2.28;2.08;;;;;;;;;;6218043;23;20487;-91
2023/11/01 19:40:52;;;;;;;4.15;2.80;;;;;;;;;;6241898;23;20032;-89
2023/11/01 19:43:18;;;;;;;2.97;2.67;;;;;;;;;;6242274;23;20105;-90
2023/11/01 19:45:44;;;;;;;4.68;2.35;;;;;;;;;;6218340;23;20008;-91
2023/11/01 19:48:10;;;;;;;3.08;2.78;;;;;;;;;;6218026;23;20009;-90
2023/11/01 19:50:36;;;;;;;3.50;2.40;;;;;;;;;;6218211;23;20385;-89
2023/11/01 19:53:02;;;;;;;5.28;2.78;;;;;;;;;;6217078;23;20007;-89
2023/11/01 19:55:28;;;;;;;3.47;3.05;;;;;;;;;;6217525;23;20008;-88
2023/11/01 19:57:53;;;;;;;4.53;3.22;;;;;;;;;;6241596;23;20332;-88
2023/11/01 20:01:01;;;;;;;5.18;3.60;;;;;;;;;;6218054;23;20084;-88
2023/11/01 20:03:26;;;;;;;5.78;3.70;;;;;;;;;;6167652;23;20120;-88
2023/11/01 20:05:52;;;;;;;4.32;3.40;;;;;;;;;;6217435;23;20424;-87
2023/11/01 20:08:17;;;;;;;2.58;2.38;;;;;;;;;;6217644;23;20368;-87
2023/11/01 20:10:43;;;;;;;3.03;2.72;;;;;;;;;;6241818;23;20386;-90
2023/11/01 20:13:08;;;;;;;12.35;8.65;;;;;;;;;;6216873;23;20412;-89
2023/11/01 20:15:34;;;;;;;15.55;11.65;;;;;;;;;;6216659;23;20092;-89
2023/11/01 20:17:59;;;;;;;11.10;9.25;;;;;;;;;;6217038;23;20013;-91
2023/11/01 20:20:27;;;;;;;9.82;8.13;;;;;;;;;;6218153;23;20005;-90
2023/11/01 20:22:53;;;;;;;4.93;3.97;;;;;;;;;;6217912;23;20004;-90
2023/11/01 20:25:21;;;;;;;5.07;4.20;;;;;;;;;;6216186;23;20083;-89
2023/11/01 20:27:49;;;;;;;34.72;20.90;;;;;;;;;;6191245;23;20096;-89
2023/11/01 20:30:15;;;;;;;12.35;8.43;;;;;;;;;;6217346;23;20429;-90
2023/11/01 20:32:41;;;;;;;12.65;6.93;;;;;;;;;;6190977;23;20004;-90
2023/11/01 20:35:08;;;;;;;14.00;8.05;;;;;;;;;;6191001;23;20054;-90
2023/11/01 20:37:33;;;;;;;8.75;5.28;;;;;;;;;;6191330;23;20036;-90
2023/11/01 20:39:59;;;;;;;9.45;7.28;;;;;;;;;;6217362;23;20000;-89
2023/11/01 20:42:24;;;;;;;32.08;19.17;;;;;;;;;;6217242;23;20364;-89
2023/11/01 20:44:50;;;;;;;24.77;21.08;;;;;;;;;;6218197;23;20040;-90
2023/11/01 20:47:18;;;;;;;17.65;15.85;;;;;;;;;;6191313;23;20068;-90
2023/11/01 20:49:43;;;;;;;11.48;9.85;;;;;;;;;;6217798;23;20076;-90
2023/11/01 20:52:19;;;;;;;8.32;7.53;;;;;;;;;;6217898;23;20004;-89
2023/11/01 20:54:54;;;;;;;25.48;15.55;;;;;;;;;;6216432;23;20012;-89
2023/11/01 20:57:31;;;;;;;13.52;9.43;;;;;;;;;;6218349;23;20414;-89
2023/11/01 20:59:57;;;;;;;5.35;4.82;;;;;;;;;;6217920;23;20321;-90
2023/11/01 21:02:26;;;;;;;4.60;4.15;;;;;;;;;;6216977;23;20004;-90
2023/11/01 21:04:55;;;;;;;4.70;4.00;;;;;;;;;;6216635;23;20012;-89
2023/11/01 21:07:26;;;;;;;7.70;4.43;;;;;;;;;;6217557;23;20059;-89
2023/11/01 21:09:56;;;;;;;6.55;5.70;;;;;;;;;;6217422;23;20104;-88
2023/11/01 21:12:22;;;;;;;8.38;6.25;;;;;;;;;;6215717;23;20443;-89
2023/11/01 21:14:48;;;;;;;8.15;6.15;;;;;;;;;;6218251;23;20039;-90
2023/11/01 21:17:19;;;;;;;7.65;5.43;;;;;;;;;;6216827;23;20448;-88
2023/11/01 21:19:46;;;;;;;5.68;4.72;;;;;;;;;;6190602;23;20009;-89
2023/11/01 21:22:13;;;;;;;6.90;5.03;;;;;;;;;;6217383;23;20058;-87
2023/11/01 21:24:40;;;;;;;6.45;5.07;;;;;;;;;;6217569;23;20331;-90
2023/11/01 21:27:05;;;;;;;8.05;6.00;;;;;;;;;;6190939;23;20032;-89
2023/11/01 21:29:31;;;;;;;9.27;8.35;;;;;;;;;;6217980;23;20007;-88
2023/11/01 21:31:56;;;;;;;7.32;6.63;;;;;;;;;;6218097;23;20005;-88
2023/11/01 21:34:22;;;;;;;7.28;5.93;;;;;;;;;;6215375;23;20308;-89
2023/11/01 21:36:49;;;;;;;8.00;6.05;;;;;;;;;;6216511;23;20522;-89
2023/11/01 21:39:14;;;;;;;14.10;12.73;;;;;;;;;;6217029;23;20016;-88
2023/11/01 21:41:40;;;;;;;8.63;7.10;;;;;;;;;;6216916;23;20007;-88
2023/11/01 21:44:07;;;;;;;15.30;11.30;;;;;;;;;;6216669;23;20016;-88
2023/11/01 21:46:33;;;;;;;6.47;5.50;;;;;;;;;;6217062;23;20033;-88
2023/11/01 21:49:01;;;;;;;5.43;4.93;;;;;;;;;;6216879;23;20078;-88
2023/11/01 21:51:29;;;;;;;6.72;4.43;;;;;;;;;;6216695;23;20769;-88
2023/11/01 21:53:56;;;;;;;5.32;4.50;;;;;;;;;;6215095;23;20062;-91
2023/11/01 21:56:28;;;;;;;5.63;4.65;;;;;;;;;;6190193;23;20000;-89
2023/11/01 21:59:07;;;;;;;5.15;3.47;;;;;;;;;;6216964;23;20000;-88
2023/11/01 22:01:33;;;;;;;5.55;4.97;;;;;;;;;;6190067;23;20009;-87
2023/11/01 22:04:10;;;;;;;5.15;4.65;;;;;;;;;;6215090;23;20154;-87
2023/11/01 22:06:36;;;;;;;10.05;7.20;;;;;;;;;;6217177;23;20008;-88
2023/11/01 22:09:13;;;;;;;9.30;5.47;;;;;;;;;;6216685;23;20443;-90
2023/11/01 22:11:41;;;;;;;5.78;5.18;;;;;;;;;;6216567;23;20001;-88
2023/11/01 22:14:12;;;;;;;9.25;5.43;;;;;;;;;;6216511;23;20327;-88
2023/11/01 22:16:39;;;;;;;6.82;5.55;;;;;;;;;;6216185;23;20334;-87
2023/11/01 22:19:34;;;;;;;8.50;6.03;;;;;;;;;;6216170;23;20028;-87
2023/11/01 22:22:32;;;;;;;7.97;6.18;;;;;;;;;;6214676;23;20032;-87
2023/11/01 22:24:58;;;;;;;8.52;6.07;;;;;;;;;;6202766;23;20017;-87
2023/11/01 22:27:37;;;;;;;7.75;6.50;;;;;;;;;;6216365;23;19997;-88
2023/11/01 22:30:06;;;;;;;8.25;5.93;;;;;;;;;;6216218;23;20004;-89
2023/11/01 22:32:31;;;;;;;7.68;5.43;;;;;;;;;;6189964;23;20062;-87
2023/11/01 22:34:59;;;;;;;7.40;5.88;;;;;;;;;;6189712;23;20079;-88
2023/11/01 22:37:29;;;;;;;7.40;5.90;;;;;;;;;;6216592;23;20156;-89
2023/11/01 22:39:56;;;;;;;7.03;5.70;;;;;;;;;;6216135;23;20424;-87
2023/11/01 22:42:30;;;;;;;10.43;6.63;;;;;;;;;;6190052;23;20031;-87
2023/11/01 22:44:56;;;;;;;6.82;6.05;;;;;;;;;;6216448;23;20009;-88
2023/11/01 22:47:21;;;;;;;6.68;5.45;;;;;;;;;;6216320;23;20024;-89
2023/11/01 22:49:47;;;;;;;6.50;5.75;;;;;;;;;;6216474;23;20008;-88
2023/11/01 22:52:12;;;;;;;7.38;6.10;;;;;;;;;;6216893;23;20008;-90
2023/11/01 22:54:40;;;;;;;5.85;5.25;;;;;;;;;;6189399;23;20336;-88
2023/11/01 22:57:06;;;;;;;6.50;5.60;;;;;;;;;;6216162;23;20015;-91
2023/11/01 23:02:09;;;;;;;6.90;6.20;;;;;;;;;;6251772;22;20024;-89
2023/11/01 23:04:35;;;;;;;7.25;5.60;;;;;;;;;;6250612;22;20004;-92
